Park Hills, Kentucky
Current Conditions -  °F | °C
As of 1:16 PM on Friday 19 Dec 2014 (Local Time) from KI69 Reporting Station
Overcast Overcast  
Wind Chill: 32°   Ceiling: 2000
Heat Index: 32°   Visibility: 10mi
Dew Point: 23°   Wind: 0mph
Humidity: 69%   Direction: NA
Pressure: 30.26"   Gusts: NA
Location:  39.0659°N, 84.5309°W
Report Text: KI69 191816Z AUTO 00000KT 10SM OVC020 00/M05 A3026 RMK AO1
Loading
Personal Weather Stations






























Interactive Weather Map New forecast layout! Learn more

10-Day Weather Forecast

Advertisements
Track Severe Weather on mobile